sensor_id;sensor_type;location;lat;lon;timestamp;P1;durP1;ratioP1;P2;durP2;ratioP2
11839;SDS011;5979;50.800;4.904;2024-02-14T00:02:45;2.65;;;2.35;;
11839;SDS011;5979;50.800;4.904;2024-02-14T00:05:11;4.35;;;2.85;;
11839;SDS011;5979;50.800;4.904;2024-02-14T00:07:37;2.65;;;2.45;;
11839;SDS011;5979;50.800;4.904;2024-02-14T00:10:04;4.72;;;2.80;;
11839;SDS011;5979;50.800;4.904;2024-02-14T00:12:34;3.10;;;2.80;;
11839;SDS011;5979;50.800;4.904;2024-02-14T00:15:01;4.10;;;3.10;;
11839;SDS011;5979;50.800;4.904;2024-02-14T00:17:28;3.85;;;2.80;;
11839;SDS011;5979;50.800;4.904;2024-02-14T00:19:54;4.05;;;2.92;;
11839;SDS011;5979;50.800;4.904;2024-02-14T00:22:19;2.95;;;2.75;;
11839;SDS011;5979;50.800;4.904;2024-02-14T00:24:45;3.75;;;2.92;;
11839;SDS011;5979;50.800;4.904;2024-02-14T00:27:11;3.30;;;2.88;;
11839;SDS011;5979;50.800;4.904;2024-02-14T00:29:39;3.60;;;3.28;;
11839;SDS011;5979;50.800;4.904;2024-02-14T00:32:05;3.17;;;2.95;;
11839;SDS011;5979;50.800;4.904;2024-02-14T00:34:31;3.13;;;2.92;;
11839;SDS011;5979;50.800;4.904;2024-02-14T00:36:56;2.90;;;2.53;;
11839;SDS011;5979;50.800;4.904;2024-02-14T00:39:22;2.83;;;2.67;;
11839;SDS011;5979;50.800;4.904;2024-02-14T00:41:47;3.00;;;2.80;;
11839;SDS011;5979;50.800;4.904;2024-02-14T00:44:14;4.05;;;2.88;;
11839;SDS011;5979;50.800;4.904;2024-02-14T00:46:42;4.68;;;2.78;;
11839;SDS011;5979;50.800;4.904;2024-02-14T00:49:08;3.03;;;2.70;;
11839;SDS011;5979;50.800;4.904;2024-02-14T00:51:35;3.13;;;2.83;;
11839;SDS011;5979;50.800;4.904;2024-02-14T00:54:02;3.85;;;2.45;;
11839;SDS011;5979;50.800;4.904;2024-02-14T00:56:28;3.15;;;2.85;;
11839;SDS011;5979;50.800;4.904;2024-02-14T00:58:54;2.65;;;2.42;;
11839;SDS011;5979;50.800;4.904;2024-02-14T01:01:19;3.75;;;3.00;;
11839;SDS011;5979;50.800;4.904;2024-02-14T01:03:46;2.78;;;2.58;;
11839;SDS011;5979;50.800;4.904;2024-02-14T01:06:12;3.38;;;3.08;;
11839;SDS011;5979;50.800;4.904;2024-02-14T01:08:39;3.00;;;2.80;;
11839;SDS011;5979;50.800;4.904;2024-02-14T01:11:06;3.83;;;2.90;;
11839;SDS011;5979;50.800;4.904;2024-02-14T01:13:32;3.17;;;2.72;;
11839;SDS011;5979;50.800;4.904;2024-02-14T01:15:58;3.28;;;2.92;;
11839;SDS011;5979;50.800;4.904;2024-02-14T01:18:23;3.78;;;2.88;;
11839;SDS011;5979;50.800;4.904;2024-02-14T01:20:49;3.10;;;2.80;;
11839;SDS011;5979;50.800;4.904;2024-02-14T01:23:15;3.38;;;2.97;;
11839;SDS011;5979;50.800;4.904;2024-02-14T01:25:41;3.38;;;2.70;;
11839;SDS011;5979;50.800;4.904;2024-02-14T01:28:08;4.53;;;3.20;;
11839;SDS011;5979;50.800;4.904;2024-02-14T01:30:34;3.42;;;3.13;;
11839;SDS011;5979;50.800;4.904;2024-02-14T01:33:01;3.33;;;3.03;;
11839;SDS011;5979;50.800;4.904;2024-02-14T01:35:29;4.13;;;3.20;;
11839;SDS011;5979;50.800;4.904;2024-02-14T01:37:55;3.22;;;2.92;;
11839;SDS011;5979;50.800;4.904;2024-02-14T01:40:21;4.00;;;3.60;;
11839;SDS011;5979;50.800;4.904;2024-02-14T01:42:46;3.45;;;3.15;;
11839;SDS011;5979;50.800;4.904;2024-02-14T01:45:12;3.35;;;3.10;;
11839;SDS011;5979;50.800;4.904;2024-02-14T01:47:38;3.40;;;3.10;;
11839;SDS011;5979;50.800;4.904;2024-02-14T01:50:07;3.72;;;3.40;;
11839;SDS011;5979;50.800;4.904;2024-02-14T01:52:34;4.22;;;3.65;;
11839;SDS011;5979;50.800;4.904;2024-02-14T01:55:00;4.00;;;3.60;;
11839;SDS011;5979;50.800;4.904;2024-02-14T01:57:28;3.55;;;3.25;;
11839;SDS011;5979;50.800;4.904;2024-02-14T01:59:53;5.03;;;3.47;;
11839;SDS011;5979;50.800;4.904;2024-02-14T02:02:21;4.22;;;3.80;;
11839;SDS011;5979;50.800;4.904;2024-02-14T02:04:47;3.78;;;3.53;;
11839;SDS011;5979;50.800;4.904;2024-02-14T02:07:13;4.20;;;3.80;;
11839;SDS011;5979;50.800;4.904;2024-02-14T02:09:38;3.90;;;3.50;;
11839;SDS011;5979;50.800;4.904;2024-02-14T02:12:04;3.72;;;3.53;;
11839;SDS011;5979;50.800;4.904;2024-02-14T02:14:32;5.35;;;4.15;;
11839;SDS011;5979;50.800;4.904;2024-02-14T02:16:58;6.25;;;3.85;;
11839;SDS011;5979;50.800;4.904;2024-02-14T02:19:24;5.45;;;4.07;;
11839;SDS011;5979;50.800;4.904;2024-02-14T02:21:50;5.18;;;4.13;;
11839;SDS011;5979;50.800;4.904;2024-02-14T02:24:17;3.78;;;3.55;;
11839;SDS011;5979;50.800;4.904;2024-02-14T02:26:43;4.30;;;3.90;;
11839;SDS011;5979;50.800;4.904;2024-02-14T02:29:09;4.88;;;3.60;;
11839;SDS011;5979;50.800;4.904;2024-02-14T02:31:35;4.53;;;4.13;;
11839;SDS011;5979;50.800;4.904;2024-02-14T02:34:01;3.42;;;3.22;;
11839;SDS011;5979;50.800;4.904;2024-02-14T02:36:27;3.88;;;3.58;;
11839;SDS011;5979;50.800;4.904;2024-02-14T02:38:55;4.15;;;3.88;;
11839;SDS011;5979;50.800;4.904;2024-02-14T02:41:21;5.43;;;3.90;;
11839;SDS011;5979;50.800;4.904;2024-02-14T02:43:47;4.50;;;3.70;;
11839;SDS011;5979;50.800;4.904;2024-02-14T02:46:14;4.00;;;3.70;;
11839;SDS011;5979;50.800;4.904;2024-02-14T02:48:40;4.57;;;3.55;;
11839;SDS011;5979;50.800;4.904;2024-02-14T02:51:06;4.65;;;3.90;;
11839;SDS011;5979;50.800;4.904;2024-02-14T02:53:32;4.00;;;3.65;;
11839;SDS011;5979;50.800;4.904;2024-02-14T02:55:57;4.07;;;3.40;;
11839;SDS011;5979;50.800;4.904;2024-02-14T02:58:24;3.78;;;3.50;;
11839;SDS011;5979;50.800;4.904;2024-02-14T03:00:51;3.90;;;3.60;;
11839;SDS011;5979;50.800;4.904;2024-02-14T03:03:20;4.45;;;4.15;;
11839;SDS011;5979;50.800;4.904;2024-02-14T03:05:46;4.38;;;3.97;;
11839;SDS011;5979;50.800;4.904;2024-02-14T03:08:12;4.85;;;4.07;;
11839;SDS011;5979;50.800;4.904;2024-02-14T03:10:40;3.58;;;3.38;;
11839;SDS011;5979;50.800;4.904;2024-02-14T03:13:06;6.65;;;4.20;;
11839;SDS011;5979;50.800;4.904;2024-02-14T03:15:36;4.22;;;3.92;;
11839;SDS011;5979;50.800;4.904;2024-02-14T03:18:02;4.13;;;3.83;;
11839;SDS011;5979;50.800;4.904;2024-02-14T03:20:34;4.00;;;3.70;;
11839;SDS011;5979;50.800;4.904;2024-02-14T03:23:01;4.47;;;4.05;;
11839;SDS011;5979;50.800;4.904;2024-02-14T03:25:28;4.60;;;3.88;;
11839;SDS011;5979;50.800;4.904;2024-02-14T03:27:54;4.22;;;3.78;;
11839;SDS011;5979;50.800;4.904;2024-02-14T03:30:22;4.28;;;3.85;;
11839;SDS011;5979;50.800;4.904;2024-02-14T03:32:51;4.13;;;3.45;;
11839;SDS011;5979;50.800;4.904;2024-02-14T03:35:17;3.90;;;3.60;;
11839;SDS011;5979;50.800;4.904;2024-02-14T03:37:45;4.63;;;4.07;;
11839;SDS011;5979;50.800;4.904;2024-02-14T03:40:13;4.30;;;4.00;;
11839;SDS011;5979;50.800;4.904;2024-02-14T03:42:39;4.57;;;4.18;;
11839;SDS011;5979;50.800;4.904;2024-02-14T03:45:05;4.13;;;3.83;;
11839;SDS011;5979;50.800;4.904;2024-02-14T03:47:32;7.60;;;4.10;;
11839;SDS011;5979;50.800;4.904;2024-02-14T03:49:58;4.00;;;3.70;;
11839;SDS011;5979;50.800;4.904;2024-02-14T03:52:24;4.38;;;3.95;;
11839;SDS011;5979;50.800;4.904;2024-02-14T03:54:51;6.30;;;4.35;;
11839;SDS011;5979;50.800;4.904;2024-02-14T03:57:17;5.55;;;4.00;;
11839;SDS011;5979;50.800;4.904;2024-02-14T03:59:43;8.18;;;4.70;;
11839;SDS011;5979;50.800;4.904;2024-02-14T04:02:09;4.53;;;4.03;;
11839;SDS011;5979;50.800;4.904;2024-02-14T04:04:37;4.47;;;4.13;;
11839;SDS011;5979;50.800;4.904;2024-02-14T04:07:04;5.10;;;4.70;;
11839;SDS011;5979;50.800;4.904;2024-02-14T04:09:32;5.25;;;4.75;;
11839;SDS011;5979;50.800;4.904;2024-02-14T04:11:58;5.05;;;4.60;;
11839;SDS011;5979;50.800;4.904;2024-02-14T04:14:23;5.60;;;4.82;;
11839;SDS011;5979;50.800;4.904;2024-02-14T04:16:49;5.93;;;5.15;;
11839;SDS011;5979;50.800;4.904;2024-02-14T04:19:15;5.93;;;5.32;;
11839;SDS011;5979;50.800;4.904;2024-02-14T04:21:42;5.30;;;4.80;;
11839;SDS011;5979;50.800;4.904;2024-02-14T04:24:08;5.80;;;5.15;;
11839;SDS011;5979;50.800;4.904;2024-02-14T04:26:34;5.05;;;4.65;;
11839;SDS011;5979;50.800;4.904;2024-02-14T04:29:00;6.03;;;4.85;;
11839;SDS011;5979;50.800;4.904;2024-02-14T04:31:26;5.15;;;4.63;;
11839;SDS011;5979;50.800;4.904;2024-02-14T04:33:55;5.15;;;4.43;;
11839;SDS011;5979;50.800;4.904;2024-02-14T04:36:21;5.25;;;4.45;;
11839;SDS011;5979;50.800;4.904;2024-02-14T04:38:49;5.55;;;4.47;;
11839;SDS011;5979;50.800;4.904;2024-02-14T04:41:15;6.10;;;4.47;;
11839;SDS011;5979;50.800;4.904;2024-02-14T04:43:41;5.25;;;4.40;;
11839;SDS011;5979;50.800;4.904;2024-02-14T04:46:07;5.47;;;4.38;;
11839;SDS011;5979;50.800;4.904;2024-02-14T04:48:33;6.05;;;4.65;;
11839;SDS011;5979;50.800;4.904;2024-02-14T04:51:02;5.28;;;4.85;;
11839;SDS011;5979;50.800;4.904;2024-02-14T04:53:30;5.28;;;4.43;;
11839;SDS011;5979;50.800;4.904;2024-02-14T04:55:59;5.18;;;4.68;;
11839;SDS011;5979;50.800;4.904;2024-02-14T04:58:24;7.75;;;5.65;;
11839;SDS011;5979;50.800;4.904;2024-02-14T05:00:51;5.65;;;5.13;;
11839;SDS011;5979;50.800;4.904;2024-02-14T05:03:17;6.47;;;5.45;;
11839;SDS011;5979;50.800;4.904;2024-02-14T05:05:43;6.78;;;5.60;;
11839;SDS011;5979;50.800;4.904;2024-02-14T05:08:09;5.55;;;5.13;;
11839;SDS011;5979;50.800;4.904;2024-02-14T05:10:34;5.18;;;4.70;;
11839;SDS011;5979;50.800;4.904;2024-02-14T05:13:00;6.38;;;5.70;;
11839;SDS011;5979;50.800;4.904;2024-02-14T05:15:26;6.28;;;5.63;;
11839;SDS011;5979;50.800;4.904;2024-02-14T05:17:52;6.78;;;5.85;;
11839;SDS011;5979;50.800;4.904;2024-02-14T05:20:17;6.53;;;5.55;;
11839;SDS011;5979;50.800;4.904;2024-02-14T05:22:43;6.68;;;5.90;;
11839;SDS011;5979;50.800;4.904;2024-02-14T05:25:09;6.97;;;6.20;;
11839;SDS011;5979;50.800;4.904;2024-02-14T05:27:35;7.47;;;5.80;;
11839;SDS011;5979;50.800;4.904;2024-02-14T05:30:02;6.25;;;5.72;;
11839;SDS011;5979;50.800;4.904;2024-02-14T05:32:30;6.82;;;5.57;;
11839;SDS011;5979;50.800;4.904;2024-02-14T05:34:57;6.60;;;5.82;;
11839;SDS011;5979;50.800;4.904;2024-02-14T05:37:22;6.63;;;5.90;;
11839;SDS011;5979;50.800;4.904;2024-02-14T05:39:48;6.32;;;5.63;;
11839;SDS011;5979;50.800;4.904;2024-02-14T05:42:14;8.18;;;5.93;;
11839;SDS011;5979;50.800;4.904;2024-02-14T05:44:41;6.20;;;5.60;;
11839;SDS011;5979;50.800;4.904;2024-02-14T05:47:08;6.30;;;5.70;;
11839;SDS011;5979;50.800;4.904;2024-02-14T05:49:34;6.43;;;5.80;;
11839;SDS011;5979;50.800;4.904;2024-02-14T05:51:59;6.50;;;5.90;;
11839;SDS011;5979;50.800;4.904;2024-02-14T05:54:25;6.28;;;5.63;;
11839;SDS011;5979;50.800;4.904;2024-02-14T05:56:50;6.75;;;5.88;;
11839;SDS011;5979;50.800;4.904;2024-02-14T05:59:16;5.72;;;5.20;;
11839;SDS011;5979;50.800;4.904;2024-02-14T06:01:42;6.10;;;5.18;;
11839;SDS011;5979;50.800;4.904;2024-02-14T06:04:07;5.93;;;5.43;;
11839;SDS011;5979;50.800;4.904;2024-02-14T06:06:33;6.38;;;5.80;;
11839;SDS011;5979;50.800;4.904;2024-02-14T06:08:59;7.32;;;6.35;;
11839;SDS011;5979;50.800;4.904;2024-02-14T06:11:24;9.15;;;6.13;;
11839;SDS011;5979;50.800;4.904;2024-02-14T06:13:50;6.07;;;5.57;;
11839;SDS011;5979;50.800;4.904;2024-02-14T06:16:16;5.70;;;5.30;;
11839;SDS011;5979;50.800;4.904;2024-02-14T06:18:41;6.18;;;5.57;;
11839;SDS011;5979;50.800;4.904;2024-02-14T06:21:07;6.43;;;5.38;;
11839;SDS011;5979;50.800;4.904;2024-02-14T06:23:33;6.75;;;5.13;;
11839;SDS011;5979;50.800;4.904;2024-02-14T06:25:59;6.22;;;5.65;;
11839;SDS011;5979;50.800;4.904;2024-02-14T06:28:24;5.63;;;5.13;;
11839;SDS011;5979;50.800;4.904;2024-02-14T06:30:50;5.70;;;5.18;;
11839;SDS011;5979;50.800;4.904;2024-02-14T06:33:16;5.40;;;4.90;;
11839;SDS011;5979;50.800;4.904;2024-02-14T06:35:41;6.63;;;5.05;;
11839;SDS011;5979;50.800;4.904;2024-02-14T06:38:07;5.18;;;4.57;;
11839;SDS011;5979;50.800;4.904;2024-02-14T06:40:33;6.15;;;5.10;;
11839;SDS011;5979;50.800;4.904;2024-02-14T06:42:58;6.93;;;4.80;;
11839;SDS011;5979;50.800;4.904;2024-02-14T06:45:28;6.45;;;5.32;;
11839;SDS011;5979;50.800;4.904;2024-02-14T06:47:54;8.82;;;5.22;;
11839;SDS011;5979;50.800;4.904;2024-02-14T06:50:20;6.15;;;5.55;;
11839;SDS011;5979;50.800;4.904;2024-02-14T06:52:45;5.57;;;5.15;;
11839;SDS011;5979;50.800;4.904;2024-02-14T06:55:11;6.95;;;5.97;;
11839;SDS011;5979;50.800;4.904;2024-02-14T06:57:37;6.60;;;5.90;;
11839;SDS011;5979;50.800;4.904;2024-02-14T07:00:03;5.93;;;5.32;;
11839;SDS011;5979;50.800;4.904;2024-02-14T07:02:33;5.57;;;5.07;;
11839;SDS011;5979;50.800;4.904;2024-02-14T07:04:59;6.00;;;5.30;;
11839;SDS011;5979;50.800;4.904;2024-02-14T07:07:25;6.03;;;5.43;;
11839;SDS011;5979;50.800;4.904;2024-02-14T07:09:50;6.75;;;5.63;;
11839;SDS011;5979;50.800;4.904;2024-02-14T07:12:16;5.30;;;4.90;;
11839;SDS011;5979;50.800;4.904;2024-02-14T07:14:42;6.80;;;5.40;;
11839;SDS011;5979;50.800;4.904;2024-02-14T07:17:07;7.97;;;6.15;;
11839;SDS011;5979;50.800;4.904;2024-02-14T07:19:33;6.53;;;5.80;;
11839;SDS011;5979;50.800;4.904;2024-02-14T07:21:59;6.03;;;5.43;;
11839;SDS011;5979;50.800;4.904;2024-02-14T07:24:24;5.10;;;4.78;;
11839;SDS011;5979;50.800;4.904;2024-02-14T07:26:50;7.70;;;5.55;;
11839;SDS011;5979;50.800;4.904;2024-02-14T07:29:15;5.95;;;5.10;;
11839;SDS011;5979;50.800;4.904;2024-02-14T07:31:41;5.95;;;5.00;;
11839;SDS011;5979;50.800;4.904;2024-02-14T07:34:06;7.35;;;5.50;;
11839;SDS011;5979;50.800;4.904;2024-02-14T07:36:32;6.07;;;5.18;;
11839;SDS011;5979;50.800;4.904;2024-02-14T07:38:58;7.20;;;5.63;;
11839;SDS011;5979;50.800;4.904;2024-02-14T07:41:23;7.50;;;5.38;;
11839;SDS011;5979;50.800;4.904;2024-02-14T07:43:49;7.75;;;5.43;;
11839;SDS011;5979;50.800;4.904;2024-02-14T07:46:18;6.38;;;5.15;;
11839;SDS011;5979;50.800;4.904;2024-02-14T07:48:45;7.10;;;5.57;;
11839;SDS011;5979;50.800;4.904;2024-02-14T07:51:11;8.32;;;5.22;;
11839;SDS011;5979;50.800;4.904;2024-02-14T07:53:37;5.30;;;4.75;;
11839;SDS011;5979;50.800;4.904;2024-02-14T07:56:03;5.30;;;4.78;;
11839;SDS011;5979;50.800;4.904;2024-02-14T07:58:28;5.90;;;5.10;;
11839;SDS011;5979;50.800;4.904;2024-02-14T08:00:54;6.03;;;5.15;;
11839;SDS011;5979;50.800;4.904;2024-02-14T08:03:20;6.65;;;5.55;;
11839;SDS011;5979;50.800;4.904;2024-02-14T08:05:45;7.18;;;5.45;;
11839;SDS011;5979;50.800;4.904;2024-02-14T08:08:11;6.20;;;5.70;;
11839;SDS011;5979;50.800;4.904;2024-02-14T08:10:37;6.38;;;5.70;;
11839;SDS011;5979;50.800;4.904;2024-02-14T08:13:03;7.72;;;5.40;;
11839;SDS011;5979;50.800;4.904;2024-02-14T08:15:29;6.70;;;5.43;;
11839;SDS011;5979;50.800;4.904;2024-02-14T08:17:55;7.55;;;5.68;;
11839;SDS011;5979;50.800;4.904;2024-02-14T08:20:21;7.18;;;5.60;;
11839;SDS011;5979;50.800;4.904;2024-02-14T08:22:48;5.82;;;5.22;;
11839;SDS011;5979;50.800;4.904;2024-02-14T08:25:14;8.85;;;5.45;;
11839;SDS011;5979;50.800;4.904;2024-02-14T08:27:40;6.57;;;5.43;;
11839;SDS011;5979;50.800;4.904;2024-02-14T08:30:06;7.55;;;5.70;;
11839;SDS011;5979;50.800;4.904;2024-02-14T08:32:34;5.85;;;5.45;;
11839;SDS011;5979;50.800;4.904;2024-02-14T08:34:59;6.00;;;5.40;;
11839;SDS011;5979;50.800;4.904;2024-02-14T08:37:26;6.43;;;5.82;;
11839;SDS011;5979;50.800;4.904;2024-02-14T08:39:52;6.13;;;5.60;;
11839;SDS011;5979;50.800;4.904;2024-02-14T08:42:18;7.10;;;6.40;;
11839;SDS011;5979;50.800;4.904;2024-02-14T08:44:43;7.00;;;5.90;;
11839;SDS011;5979;50.800;4.904;2024-02-14T08:47:09;7.43;;;5.68;;
11839;SDS011;5979;50.800;4.904;2024-02-14T08:49:35;7.07;;;5.97;;
11839;SDS011;5979;50.800;4.904;2024-02-14T08:52:01;7.90;;;5.68;;
11839;SDS011;5979;50.800;4.904;2024-02-14T08:54:27;6.63;;;5.90;;
11839;SDS011;5979;50.800;4.904;2024-02-14T08:56:53;6.25;;;5.25;;
11839;SDS011;5979;50.800;4.904;2024-02-14T08:59:22;10.68;;;6.45;;
11839;SDS011;5979;50.800;4.904;2024-02-14T09:01:47;5.70;;;5.20;;
11839;SDS011;5979;50.800;4.904;2024-02-14T09:04:13;6.65;;;5.80;;
11839;SDS011;5979;50.800;4.904;2024-02-14T09:06:39;5.70;;;4.95;;
11839;SDS011;5979;50.800;4.904;2024-02-14T09:09:06;5.97;;;5.38;;
11839;SDS011;5979;50.800;4.904;2024-02-14T09:11:35;7.13;;;4.93;;
11839;SDS011;5979;50.800;4.904;2024-02-14T09:14:01;5.25;;;4.85;;
11839;SDS011;5979;50.800;4.904;2024-02-14T09:16:31;5.68;;;5.28;;
11839;SDS011;5979;50.800;4.904;2024-02-14T09:19:00;5.93;;;5.18;;
11839;SDS011;5979;50.800;4.904;2024-02-14T09:21:30;5.45;;;4.90;;
11839;SDS011;5979;50.800;4.904;2024-02-14T09:23:56;5.43;;;4.95;;
11839;SDS011;5979;50.800;4.904;2024-02-14T09:26:21;6.47;;;5.18;;
11839;SDS011;5979;50.800;4.904;2024-02-14T09:28:47;5.10;;;4.70;;
11839;SDS011;5979;50.800;4.904;2024-02-14T09:31:17;5.30;;;4.80;;
11839;SDS011;5979;50.800;4.904;2024-02-14T09:33:44;4.43;;;4.15;;
11839;SDS011;5979;50.800;4.904;2024-02-14T09:36:12;4.85;;;4.45;;
11839;SDS011;5979;50.800;4.904;2024-02-14T09:38:39;4.70;;;4.30;;
11839;SDS011;5979;50.800;4.904;2024-02-14T09:41:06;4.35;;;4.00;;
11839;SDS011;5979;50.800;4.904;2024-02-14T09:43:39;4.53;;;4.13;;
11839;SDS011;5979;50.800;4.904;2024-02-14T09:46:09;4.13;;;3.72;;
11839;SDS011;5979;50.800;4.904;2024-02-14T09:48:43;4.45;;;4.10;;
11839;SDS011;5979;50.800;4.904;2024-02-14T09:51:10;4.28;;;3.97;;
11839;SDS011;5979;50.800;4.904;2024-02-14T09:53:37;4.20;;;3.80;;
11839;SDS011;5979;50.800;4.904;2024-02-14T09:56:04;4.20;;;3.80;;
11839;SDS011;5979;50.800;4.904;2024-02-14T09:58:31;6.22;;;3.65;;
11839;SDS011;5979;50.800;4.904;2024-02-14T10:01:00;6.05;;;3.70;;
11839;SDS011;5979;50.800;4.904;2024-02-14T10:03:26;3.78;;;3.58;;
11839;SDS011;5979;50.800;4.904;2024-02-14T10:05:52;3.25;;;3.05;;
11839;SDS011;5979;50.800;4.904;2024-02-14T10:08:21;3.00;;;2.90;;
11839;SDS011;5979;50.800;4.904;2024-02-14T10:10:47;2.88;;;2.60;;
11839;SDS011;5979;50.800;4.904;2024-02-14T10:13:15;2.85;;;2.60;;
11839;SDS011;5979;50.800;4.904;2024-02-14T10:15:41;2.72;;;2.63;;
11839;SDS011;5979;50.800;4.904;2024-02-14T10:18:07;3.05;;;2.85;;
11839;SDS011;5979;50.800;4.904;2024-02-14T10:20:34;2.97;;;2.78;;
11839;SDS011;5979;50.800;4.904;2024-02-14T10:23:05;2.55;;;2.42;;
11839;SDS011;5979;50.800;4.904;2024-02-14T10:25:36;2.90;;;2.70;;
11839;SDS011;5979;50.800;4.904;2024-02-14T10:28:04;2.42;;;2.33;;
11839;SDS011;5979;50.800;4.904;2024-02-14T10:30:33;3.00;;;2.80;;
11839;SDS011;5979;50.800;4.904;2024-02-14T10:33:03;2.75;;;2.55;;
11839;SDS011;5979;50.800;4.904;2024-02-14T10:35:32;3.08;;;2.75;;
11839;SDS011;5979;50.800;4.904;2024-02-14T10:38:02;2.70;;;2.60;;
11839;SDS011;5979;50.800;4.904;2024-02-14T10:40:28;3.28;;;3.00;;
11839;SDS011;5979;50.800;4.904;2024-02-14T10:42:57;2.95;;;2.80;;
11839;SDS011;5979;50.800;4.904;2024-02-14T10:45:24;3.63;;;3.33;;
11839;SDS011;5979;50.800;4.904;2024-02-14T10:47:51;3.65;;;3.45;;
11839;SDS011;5979;50.800;4.904;2024-02-14T10:50:18;5.35;;;3.47;;
11839;SDS011;5979;50.800;4.904;2024-02-14T10:52:47;3.60;;;3.30;;
11839;SDS011;5979;50.800;4.904;2024-02-14T10:55:14;4.00;;;3.70;;
11839;SDS011;5979;50.800;4.904;2024-02-14T10:57:42;3.75;;;3.47;;
11839;SDS011;5979;50.800;4.904;2024-02-14T11:00:10;3.67;;;3.22;;
11839;SDS011;5979;50.800;4.904;2024-02-14T11:02:39;5.50;;;3.47;;
11839;SDS011;5979;50.800;4.904;2024-02-14T11:05:11;3.65;;;3.45;;
11839;SDS011;5979;50.800;4.904;2024-02-14T11:07:43;3.35;;;3.15;;
11839;SDS011;5979;50.800;4.904;2024-02-14T11:10:14;3.47;;;3.17;;
11839;SDS011;5979;50.800;4.904;2024-02-14T11:12:41;3.47;;;3.00;;
11839;SDS011;5979;50.800;4.904;2024-02-14T11:15:10;3.85;;;3.50;;
11839;SDS011;5979;50.800;4.904;2024-02-14T11:17:37;3.28;;;2.55;;
11839;SDS011;5979;50.800;4.904;2024-02-14T11:22:54;3.83;;;2.53;;
11839;SDS011;5979;50.800;4.904;2024-02-14T11:25:31;2.50;;;2.40;;
11839;SDS011;5979;50.800;4.904;2024-02-14T11:27:59;4.25;;;2.40;;
11839;SDS011;5979;50.800;4.904;2024-02-14T11:30:31;2.38;;;2.17;;
11839;SDS011;5979;50.800;4.904;2024-02-14T11:33:33;2.05;;;1.88;;
11839;SDS011;5979;50.800;4.904;2024-02-14T11:35:52;2.30;;;2.10;;
11839;SDS011;5979;50.800;4.904;2024-02-14T11:38:20;2.25;;;1.63;;
11839;SDS011;5979;50.800;4.904;2024-02-14T11:40:47;1.85;;;1.77;;
11839;SDS011;5979;50.800;4.904;2024-02-14T11:43:14;3.78;;;1.50;;
11839;SDS011;5979;50.800;4.904;2024-02-14T11:45:42;2.50;;;1.75;;
11839;SDS011;5979;50.800;4.904;2024-02-14T11:48:12;1.70;;;1.60;;
11839;SDS011;5979;50.800;4.904;2024-02-14T11:50:42;1.95;;;1.77;;
11839;SDS011;5979;50.800;4.904;2024-02-14T11:53:12;1.92;;;1.80;;
11839;SDS011;5979;50.800;4.904;2024-02-14T11:55:41;1.65;;;1.55;;
11839;SDS011;5979;50.800;4.904;2024-02-14T11:58:10;1.77;;;1.67;;
11839;SDS011;5979;50.800;4.904;2024-02-14T12:00:40;1.77;;;1.67;;
11839;SDS011;5979;50.800;4.904;2024-02-14T12:03:10;1.88;;;1.55;;
11839;SDS011;5979;50.800;4.904;2024-02-14T12:05:48;1.60;;;1.60;;
11839;SDS011;5979;50.800;4.904;2024-02-14T12:08:16;2.00;;;1.90;;
11839;SDS011;5979;50.800;4.904;2024-02-14T12:10:43;1.55;;;1.50;;
11839;SDS011;5979;50.800;4.904;2024-02-14T12:13:13;1.75;;;1.65;;
11839;SDS011;5979;50.800;4.904;2024-02-14T12:15:49;1.95;;;1.77;;
11839;SDS011;5979;50.800;4.904;2024-02-14T12:18:16;1.65;;;1.55;;
11839;SDS011;5979;50.800;4.904;2024-02-14T12:20:44;1.73;;;1.63;;
11839;SDS011;5979;50.800;4.904;2024-02-14T12:23:16;1.80;;;1.70;;
11839;SDS011;5979;50.800;4.904;2024-02-14T12:25:43;1.65;;;1.60;;
11839;SDS011;5979;50.800;4.904;2024-02-14T12:28:18;2.00;;;1.90;;
11839;SDS011;5979;50.800;4.904;2024-02-14T12:30:45;2.00;;;1.90;;
11839;SDS011;5979;50.800;4.904;2024-02-14T12:33:14;1.90;;;1.80;;
11839;SDS011;5979;50.800;4.904;2024-02-14T12:35:47;2.50;;;2.30;;
11839;SDS011;5979;50.800;4.904;2024-02-14T12:38:13;2.38;;;2.28;;
11839;SDS011;5979;50.800;4.904;2024-02-14T12:40:41;2.42;;;2.22;;
11839;SDS011;5979;50.800;4.904;2024-02-14T12:43:07;2.90;;;2.30;;
11839;SDS011;5979;50.800;4.904;2024-02-14T12:45:34;3.20;;;2.90;;
11839;SDS011;5979;50.800;4.904;2024-02-14T12:48:00;2.70;;;2.50;;
11839;SDS011;5979;50.800;4.904;2024-02-14T12:50:26;3.22;;;2.90;;
11839;SDS011;5979;50.800;4.904;2024-02-14T12:52:52;3.15;;;2.95;;
11839;SDS011;5979;50.800;4.904;2024-02-14T12:55:17;3.45;;;3.15;;
11839;SDS011;5979;50.800;4.904;2024-02-14T12:57:44;5.00;;;2.85;;
11839;SDS011;5979;50.800;4.904;2024-02-14T13:00:10;4.07;;;2.83;;
11839;SDS011;5979;50.800;4.904;2024-02-14T13:02:36;2.50;;;2.40;;
11839;SDS011;5979;50.800;4.904;2024-02-14T13:05:03;2.80;;;2.60;;
11839;SDS011;5979;50.800;4.904;2024-02-14T13:07:32;3.55;;;3.13;;
11839;SDS011;5979;50.800;4.904;2024-02-14T13:09:59;3.63;;;3.33;;
11839;SDS011;5979;50.800;4.904;2024-02-14T13:12:25;3.53;;;3.22;;
11839;SDS011;5979;50.800;4.904;2024-02-14T13:14:51;3.25;;;3.03;;
11839;SDS011;5979;50.800;4.904;2024-02-14T13:17:17;3.53;;;3.22;;
11839;SDS011;5979;50.800;4.904;2024-02-14T13:19:42;3.60;;;3.40;;
11839;SDS011;5979;50.800;4.904;2024-02-14T13:22:09;4.88;;;3.30;;
11839;SDS011;5979;50.800;4.904;2024-02-14T13:24:34;3.83;;;3.50;;
11839;SDS011;5979;50.800;4.904;2024-02-14T13:27:00;3.95;;;3.60;;
11839;SDS011;5979;50.800;4.904;2024-02-14T13:29:26;3.47;;;3.17;;
11839;SDS011;5979;50.800;4.904;2024-02-14T13:31:52;3.75;;;3.45;;
11839;SDS011;5979;50.800;4.904;2024-02-14T13:34:17;4.80;;;3.70;;
11839;SDS011;5979;50.800;4.904;2024-02-14T13:36:44;4.30;;;3.90;;
11839;SDS011;5979;50.800;4.904;2024-02-14T13:39:13;4.40;;;3.72;;
11839;SDS011;5979;50.800;4.904;2024-02-14T13:41:40;5.20;;;3.60;;
11839;SDS011;5979;50.800;4.904;2024-02-14T13:44:08;4.57;;;4.00;;
11839;SDS011;5979;50.800;4.904;2024-02-14T13:46:34;6.78;;;3.50;;
11839;SDS011;5979;50.800;4.904;2024-02-14T13:49:00;4.07;;;3.58;;
11839;SDS011;5979;50.800;4.904;2024-02-14T13:51:26;5.55;;;3.42;;
11839;SDS011;5979;50.800;4.904;2024-02-14T13:53:52;3.92;;;3.53;;
11839;SDS011;5979;50.800;4.904;2024-02-14T13:56:18;4.32;;;3.60;;
11839;SDS011;5979;50.800;4.904;2024-02-14T13:58:47;3.90;;;3.60;;
11839;SDS011;5979;50.800;4.904;2024-02-14T14:01:15;3.92;;;3.50;;
11839;SDS011;5979;50.800;4.904;2024-02-14T14:03:42;4.63;;;3.78;;
11839;SDS011;5979;50.800;4.904;2024-02-14T14:06:08;4.38;;;3.67;;
11839;SDS011;5979;50.800;4.904;2024-02-14T14:08:34;4.30;;;3.40;;
11839;SDS011;5979;50.800;4.904;2024-02-14T14:11:03;4.57;;;3.60;;
11839;SDS011;5979;50.800;4.904;2024-02-14T14:13:29;4.60;;;4.18;;
11839;SDS011;5979;50.800;4.904;2024-02-14T14:15:58;4.30;;;3.90;;
11839;SDS011;5979;50.800;4.904;2024-02-14T14:18:24;3.78;;;3.47;;
11839;SDS011;5979;50.800;4.904;2024-02-14T14:20:50;6.80;;;3.95;;
11839;SDS011;5979;50.800;4.904;2024-02-14T14:23:16;4.68;;;3.40;;
11839;SDS011;5979;50.800;4.904;2024-02-14T14:25:41;4.65;;;3.80;;
11839;SDS011;5979;50.800;4.904;2024-02-14T14:28:07;5.20;;;3.90;;
11839;SDS011;5979;50.800;4.904;2024-02-14T14:30:34;4.93;;;3.72;;
11839;SDS011;5979;50.800;4.904;2024-02-14T14:33:01;4.78;;;4.18;;
11839;SDS011;5979;50.800;4.904;2024-02-14T14:35:29;4.30;;;3.90;;
11839;SDS011;5979;50.800;4.904;2024-02-14T14:38:04;3.88;;;3.58;;
11839;SDS011;5979;50.800;4.904;2024-02-14T14:40:30;3.55;;;3.25;;
11839;SDS011;5979;50.800;4.904;2024-02-14T14:42:56;5.63;;;3.75;;
11839;SDS011;5979;50.800;4.904;2024-02-14T14:45:21;3.95;;;3.60;;
11839;SDS011;5979;50.800;4.904;2024-02-14T14:47:47;4.93;;;4.40;;
11839;SDS011;5979;50.800;4.904;2024-02-14T14:50:14;5.97;;;4.28;;
11839;SDS011;5979;50.800;4.904;2024-02-14T14:52:41;5.60;;;4.20;;
11839;SDS011;5979;50.800;4.904;2024-02-14T14:55:08;6.40;;;4.57;;
11839;SDS011;5979;50.800;4.904;2024-02-14T14:57:35;7.13;;;4.55;;
11839;SDS011;5979;50.800;4.904;2024-02-14T15:00:09;4.72;;;4.25;;
11839;SDS011;5979;50.800;4.904;2024-02-14T15:02:42;4.75;;;4.28;;